createdAt,value
2019-04-27T00:02:45.182Z,2.00
2019-04-27T00:07:46.741Z,2.30
2019-04-27T00:12:40.882Z,2.70
2019-04-27T00:18:00.538Z,2.30
2019-04-27T00:22:57.911Z,2.70
2019-04-27T00:27:53.425Z,2.10
2019-04-27T00:32:47.848Z,2.13
2019-04-27T00:37:50.534Z,2.30
2019-04-27T00:42:45.194Z,2.07
2019-04-27T00:47:39.293Z,2.07
2019-04-27T00:52:34.877Z,1.60
2019-04-27T00:57:45.870Z,2.40
2019-04-27T01:03:03.704Z,1.90
2019-04-27T01:07:57.979Z,1.90
2019-04-27T01:12:53.101Z,1.80
2019-04-27T01:17:48.943Z,2.20
2019-04-27T01:22:45.270Z,1.80
2019-04-27T01:27:59.664Z,1.60
2019-04-27T01:32:53.676Z,1.70
2019-04-27T01:37:48.749Z,1.80
2019-04-27T01:42:42.694Z,1.80
2019-04-27T01:47:36.692Z,1.90
2019-04-27T01:52:31.076Z,1.93
2019-04-27T01:57:25.481Z,1.73
2019-04-27T02:02:33.171Z,2.03
2019-04-27T02:07:27.081Z,1.77
2019-04-27T02:12:21.171Z,1.90
2019-04-27T02:17:15.984Z,1.90
2019-04-27T02:22:11.265Z,1.97
2019-04-27T02:27:05.427Z,1.77
2019-04-27T02:32:06.080Z,1.53
2019-04-27T02:37:02.738Z,1.50
2019-04-27T02:41:56.136Z,1.63
2019-04-27T02:46:50.396Z,1.47
2019-04-27T02:52:02.502Z,1.63
2019-04-27T02:56:56.446Z,2.00
2019-04-27T03:01:56.942Z,2.17
2019-04-27T03:06:50.958Z,1.50
2019-04-27T03:11:45.138Z,1.60
2019-04-27T03:16:49.646Z,1.70
2019-04-27T03:21:59.298Z,1.43
2019-04-27T03:26:56.495Z,1.40
2019-04-27T03:31:53.887Z,1.40
2019-04-27T03:36:46.218Z,1.47
2019-04-27T03:41:41.104Z,1.33
2019-04-27T03:46:35.394Z,1.20
2019-04-27T03:51:52.041Z,1.63
2019-04-27T03:56:50.842Z,1.73
2019-04-27T04:01:45.042Z,1.50
2019-04-27T04:06:39.996Z,1.60
2019-04-27T04:11:49.137Z,1.43
2019-04-27T04:17:03.127Z,1.70
2019-04-27T04:21:59.894Z,1.40
2019-04-27T04:26:54.176Z,1.47
2019-04-27T04:31:50.339Z,1.90
2019-04-27T04:36:43.800Z,1.70
2019-04-27T04:41:47.571Z,1.80
2019-04-27T04:46:50.119Z,1.70
2019-04-27T04:51:44.197Z,1.80
2019-04-27T04:56:39.280Z,2.17
2019-04-27T05:01:33.350Z,1.87
2019-04-27T05:06:29.062Z,1.83
2019-04-27T05:11:23.204Z,2.03
2019-04-27T05:16:18.931Z,1.87
2019-04-27T05:21:22.023Z,2.30
2019-04-27T05:26:16.071Z,2.07
2019-04-27T05:31:10.040Z,2.00
2019-04-27T05:36:03.803Z,2.27
2019-04-27T05:40:58.641Z,2.27
2019-04-27T05:46:39.688Z,2.27
2019-04-27T05:51:37.086Z,2.30
2019-04-27T05:56:29.359Z,2.57
2019-04-27T06:01:23.334Z,2.50
2019-04-27T06:06:17.186Z,2.50
2019-04-27T06:11:11.004Z,2.80
2019-04-27T06:16:05.113Z,3.10
2019-04-27T06:20:59.833Z,2.87
2019-04-27T06:25:53.903Z,3.20
2019-04-27T06:30:49.229Z,2.93
2019-04-27T06:35:43.332Z,2.63
2019-04-27T06:40:38.941Z,3.00
2019-04-27T06:45:33.023Z,2.83
2019-04-27T06:50:26.647Z,2.67
2019-04-27T06:55:20.645Z,2.40
2019-04-27T07:00:14.808Z,2.83
2019-04-27T07:05:09.084Z,2.53
2019-04-27T07:10:03.007Z,2.60
2019-04-27T07:14:59.033Z,2.53
2019-04-27T07:19:52.875Z,2.57
2019-04-27T07:24:46.914Z,3.10
2019-04-27T07:29:44.680Z,2.80
2019-04-27T07:34:36.565Z,3.47
2019-04-27T07:39:30.751Z,3.17
2019-04-27T07:44:33.731Z,3.53
2019-04-27T07:49:29.077Z,3.30
2019-04-27T07:54:23.847Z,3.00
2019-04-27T07:59:18.864Z,3.00
2019-04-27T08:04:12.919Z,3.40
2019-04-27T08:09:06.917Z,3.47
2019-04-27T08:14:00.854Z,3.27
2019-04-27T08:18:54.775Z,3.70
2019-04-27T08:23:49.067Z,4.00
2019-04-27T08:28:53.493Z,4.10
2019-04-27T08:33:48.662Z,4.00
2019-04-27T08:38:42.830Z,4.63
2019-04-27T08:43:38.850Z,4.37
2019-04-27T08:48:36.747Z,4.77
2019-04-27T08:53:29.866Z,4.43
2019-04-27T08:58:23.861Z,4.93
2019-04-27T09:03:19.281Z,5.00
2019-04-27T09:08:29.493Z,4.50
2019-04-27T09:13:30.018Z,4.67
2019-04-27T09:18:26.376Z,4.13
2019-04-27T09:23:20.487Z,3.90
2019-04-27T09:28:14.595Z,4.33
2019-04-27T09:33:11.729Z,4.23
2019-04-27T09:38:07.079Z,3.80
2019-04-27T09:43:01.287Z,1.67
2019-04-27T09:47:56.293Z,1.20
2019-04-27T09:52:50.393Z,1.50
2019-04-27T09:57:44.393Z,1.10
2019-04-27T10:02:41.005Z,1.53
2019-04-27T10:07:35.882Z,1.70
2019-04-27T10:12:30.057Z,1.27
2019-04-27T10:17:25.028Z,1.50
2019-04-27T10:22:19.104Z,1.17
2019-04-27T10:27:13.124Z,1.30
2019-04-27T10:32:07.148Z,1.40
2019-04-27T10:37:01.568Z,1.33
2019-04-27T10:41:56.368Z,1.30
2019-04-27T10:46:50.358Z,1.40
2019-04-27T10:51:45.683Z,1.37
2019-04-27T10:56:39.961Z,1.80
2019-04-27T11:01:35.943Z,1.73
2019-04-27T11:06:36.016Z,1.70
2019-04-27T11:11:29.932Z,1.60
2019-04-27T11:16:23.919Z,1.97
2019-04-27T11:21:17.905Z,1.83
2019-04-27T11:26:12.031Z,2.03
2019-04-27T11:31:06.902Z,1.80
2019-04-27T11:36:19.210Z,1.67
2019-04-27T11:41:13.335Z,2.60
2019-04-27T11:46:07.642Z,2.60
2019-04-27T11:51:02.628Z,2.30
2019-04-27T11:55:56.656Z,2.27
2019-04-27T12:00:51.730Z,1.90
2019-04-27T12:05:46.489Z,1.63
2019-04-27T12:10:40.542Z,1.20
2019-04-27T12:15:36.185Z,6.80
2019-04-27T12:20:30.479Z,1.13
2019-04-27T12:25:24.356Z,1.57
2019-04-27T12:30:31.646Z,1.60
2019-04-27T12:35:25.804Z,1.33
2019-04-27T12:40:20.080Z,1.47
2019-04-27T12:45:17.970Z,1.17
2019-04-27T12:50:12.339Z,1.23
2019-04-27T12:55:22.538Z,1.00
2019-04-27T13:00:20.490Z,0.70
2019-04-27T13:05:15.782Z,1.20
2019-04-27T13:10:09.945Z,0.90
2019-04-27T13:15:04.606Z,1.00
2019-04-27T13:19:58.650Z,1.40
2019-04-27T13:24:52.545Z,1.33
2019-04-27T13:29:46.776Z,1.47
2019-04-27T13:34:40.709Z,1.33
2019-04-27T13:39:35.937Z,1.90
2019-04-27T13:44:30.140Z,1.83
2019-04-27T13:49:36.419Z,2.07
2019-04-27T13:54:30.572Z,1.43
2019-04-27T13:59:25.609Z,2.03
2019-04-27T14:04:19.618Z,2.03
2019-04-27T14:09:13.606Z,1.50
2019-04-27T14:14:07.535Z,1.70
2019-04-27T14:19:01.575Z,1.93
2019-04-27T14:23:55.590Z,1.73
2019-04-27T14:28:49.983Z,0.97
2019-04-27T14:33:44.063Z,1.83
2019-04-27T14:38:38.085Z,1.57
2019-04-27T14:43:32.060Z,1.70
2019-04-27T14:48:26.013Z,1.33
2019-04-27T14:53:20.334Z,2.00
2019-04-27T14:58:14.336Z,2.23
2019-04-27T15:03:09.750Z,1.70
2019-04-27T15:08:08.198Z,2.07
2019-04-27T15:13:01.586Z,1.97
2019-04-27T15:17:57.473Z,2.43
2019-04-27T15:22:56.708Z,2.17
2019-04-27T15:27:51.872Z,2.00
2019-04-27T15:33:03.992Z,2.60
2019-04-27T15:38:05.090Z,3.20
2019-04-27T15:43:05.705Z,2.23
2019-04-27T15:48:00.538Z,1.70
2019-04-27T15:52:54.640Z,1.77
2019-04-27T15:57:50.341Z,1.60
2019-04-27T16:02:48.741Z,1.53
2019-04-27T16:07:40.325Z,2.10
2019-04-27T16:12:38.131Z,2.33
2019-04-27T16:17:32.046Z,2.17
2019-04-27T16:22:26.901Z,1.57
2019-04-27T16:27:25.888Z,1.33
2019-04-27T16:32:17.807Z,2.10
2019-04-27T16:37:18.062Z,2.67
2019-04-27T16:42:14.080Z,1.67
2019-04-27T16:47:05.517Z,2.00
2019-04-27T16:51:59.448Z,1.57
2019-04-27T16:57:02.172Z,2.07
2019-04-27T17:01:50.315Z,2.07
2019-04-27T17:06:45.967Z,2.33
2019-04-27T17:11:43.816Z,1.80
2019-04-27T17:16:45.244Z,1.70
2019-04-27T17:21:41.215Z,2.07
2019-04-27T17:26:35.545Z,5.37
2019-04-27T17:31:32.549Z,3.60
2019-04-27T17:36:26.572Z,4.60
2019-04-27T17:41:20.601Z,1.97
2019-04-27T17:46:14.399Z,1.50
2019-04-27T17:51:08.918Z,1.97
2019-04-27T17:56:05.957Z,1.97
2019-04-27T18:00:59.939Z,2.10
2019-04-27T18:05:54.022Z,2.10
2019-04-27T18:10:48.095Z,2.00
2019-04-27T18:15:45.704Z,2.20
2019-04-27T18:20:38.015Z,2.10
2019-04-27T18:25:39.794Z,2.37
2019-04-27T18:30:57.202Z,3.30
2019-04-27T18:35:51.341Z,1.97
2019-04-27T18:40:45.480Z,2.20
2019-04-27T18:45:44.808Z,3.43
2019-04-27T18:50:52.178Z,2.97
2019-04-27T18:55:50.051Z,3.10
2019-04-27T19:00:42.184Z,3.83
2019-04-27T19:05:40.199Z,2.60
2019-04-27T19:10:31.879Z,2.67
2019-04-27T19:15:25.889Z,3.43
2019-04-27T19:20:19.900Z,4.57
2019-04-27T19:25:20.703Z,3.23
2019-04-27T19:30:28.729Z,3.93
2019-04-27T19:35:22.653Z,3.13
2019-04-27T19:40:16.546Z,3.10
2019-04-27T19:45:10.644Z,2.80
2019-04-27T19:50:05.053Z,2.90
2019-04-27T19:55:00.461Z,3.03
2019-04-27T19:59:56.675Z,3.47
2019-04-27T20:05:00.079Z,3.47
2019-04-27T20:09:58.384Z,2.53
2019-04-27T20:14:58.382Z,3.47
2019-04-27T20:19:52.513Z,3.67
2019-04-27T20:24:47.690Z,2.97
2019-04-27T20:29:41.652Z,3.87
2019-04-27T20:34:35.705Z,3.10
2019-04-27T20:39:29.629Z,3.43
2019-04-27T20:44:23.753Z,3.40
2019-04-27T20:49:20.135Z,4.00
2019-04-27T20:54:14.069Z,3.70
2019-04-27T20:59:08.025Z,3.47
2019-04-27T21:04:03.434Z,3.60
2019-04-27T21:08:57.292Z,3.93
2019-04-27T21:13:51.646Z,3.60
2019-04-27T21:18:47.183Z,3.40
2019-04-27T21:23:41.543Z,4.03
2019-04-27T21:28:36.720Z,4.00
2019-04-27T21:33:31.793Z,3.60
2019-04-27T21:38:25.823Z,2.93
2019-04-27T21:43:21.472Z,3.10
2019-04-27T21:48:15.525Z,3.00
2019-04-27T21:53:34.926Z,3.67
2019-04-27T21:58:29.125Z,3.43
2019-04-27T22:03:28.125Z,3.20
2019-04-27T22:08:22.231Z,3.03
2019-04-27T22:13:16.307Z,3.30
2019-04-27T22:18:11.142Z,4.50
2019-04-27T22:23:10.273Z,4.47
2019-04-27T22:28:04.298Z,4.00
2019-04-27T22:32:58.343Z,3.13
2019-04-27T22:37:52.339Z,2.93
2019-04-27T22:43:08.326Z,3.40
2019-04-27T22:48:02.400Z,3.33
2019-04-27T22:52:56.236Z,2.93
2019-04-27T22:57:58.070Z,3.50
2019-04-27T23:02:55.091Z,2.80
2019-04-27T23:07:48.949Z,2.70
2019-04-27T23:12:42.885Z,3.10
2019-04-27T23:17:55.748Z,2.63
2019-04-27T23:22:49.565Z,2.40
2019-04-27T23:27:43.353Z,2.47
2019-04-27T23:32:41.350Z,2.83
2019-04-27T23:37:35.215Z,3.47
2019-04-27T23:42:29.263Z,3.10
2019-04-27T23:47:23.210Z,2.90
2019-04-27T23:52:22.170Z,3.33
2019-04-27T23:57:16.117Z,2.83
